Bruce, Wisconsin
Current Conditions -  °F | °C
As of 2:55 PM on Thursday 27 Nov 2014 (Local Time) from KRCX Reporting Station
Clear Clear  
Wind Chill: -17°   Ceiling: Unl
Heat Index: -12°   Visibility: 10mi
Dew Point: -19°   Wind: 5mph
Humidity: 58%   Direction: 290°WNW
Pressure: 30.39"   Gusts: NA
Location:  45.46°N, 91.27°W
Report Text: KRCX 272055Z AUTO 29004KT 10SM CLR M12/M19 A3039 RMK AO2 T11201188
Loading
Personal Weather Stations






























Interactive Weather Map New forecast layout! Learn more

10-Day Weather Forecast

Advertisements
Track Severe Weather on mobile